createdAt,value
2023-02-11T00:01:29.656Z,28.92
2023-02-11T00:03:58.582Z,26.17
2023-02-11T00:06:28.157Z,31.45
2023-02-11T00:08:57.000Z,25.95
2023-02-11T00:11:30.361Z,19.67
2023-02-11T00:13:58.582Z,23.73
2023-02-11T00:16:26.724Z,28.00
2023-02-11T00:18:55.048Z,27.42
2023-02-11T00:21:24.831Z,20.80
2023-02-11T00:23:53.048Z,21.80
2023-02-11T00:26:23.168Z,24.50
2023-02-11T00:28:53.377Z,25.50
2023-02-11T00:31:23.606Z,30.27
2023-02-11T00:33:51.879Z,40.53
2023-02-11T00:36:22.446Z,24.77
2023-02-11T00:38:51.203Z,31.95
2023-02-11T00:41:20.086Z,30.33
2023-02-11T00:43:48.346Z,33.25
2023-02-11T00:46:17.699Z,30.42
2023-02-11T00:51:13.825Z,31.30
2023-02-11T00:53:41.927Z,34.42
2023-02-11T00:56:10.156Z,27.08
2023-02-11T00:58:38.142Z,23.10
2023-02-11T01:01:06.132Z,30.27
2023-02-11T01:03:35.677Z,32.20
2023-02-11T01:06:03.823Z,27.67
2023-02-11T01:08:31.792Z,41.33
2023-02-11T01:11:01.528Z,35.92
2023-02-11T01:13:33.666Z,30.02
2023-02-11T01:16:01.616Z,39.17
2023-02-11T01:18:29.742Z,37.35
2023-02-11T01:20:58.947Z,37.03
2023-02-11T01:23:26.924Z,35.28
2023-02-11T01:25:55.437Z,29.20
2023-02-11T01:28:25.698Z,39.17
2023-02-11T01:30:54.344Z,36.78
2023-02-11T01:33:23.480Z,36.58
2023-02-11T01:35:51.660Z,31.95
2023-02-11T01:38:23.172Z,34.60
2023-02-11T01:40:54.809Z,32.00
2023-02-11T01:43:24.717Z,34.63
2023-02-11T01:46:04.247Z,32.85
2023-02-11T01:48:37.104Z,35.40
2023-02-11T01:51:10.094Z,34.08
2023-02-11T01:53:57.587Z,38.15
2023-02-11T01:56:45.648Z,37.75
2023-02-11T01:59:18.183Z,33.97
2023-02-11T02:01:52.951Z,39.03
2023-02-11T02:04:22.122Z,39.67
2023-02-11T02:06:53.691Z,40.40
2023-02-11T02:09:26.929Z,39.53
2023-02-11T02:11:54.970Z,33.10
2023-02-11T02:14:22.796Z,42.25
2023-02-11T02:16:50.854Z,39.83
2023-02-11T02:19:45.091Z,36.40
2023-02-11T02:22:32.060Z,41.45
2023-02-11T02:25:27.498Z,32.28
2023-02-11T02:28:09.599Z,32.47
2023-02-11T02:31:07.981Z,33.85
2023-02-11T02:33:46.350Z,42.50
2023-02-11T02:36:19.469Z,36.15
2023-02-11T02:38:51.910Z,33.85
2023-02-11T02:41:22.469Z,35.22
2023-02-11T02:43:52.120Z,35.50
2023-02-11T02:46:23.404Z,25.48
2023-02-11T02:48:53.881Z,31.83
2023-02-11T02:51:53.002Z,31.95
2023-02-11T02:54:36.929Z,35.08
2023-02-11T02:57:15.571Z,26.92
2023-02-11T02:59:57.942Z,27.35
2023-02-11T03:02:30.556Z,33.78
2023-02-11T03:05:07.198Z,24.00
2023-02-11T03:07:40.804Z,23.27
2023-02-11T03:10:11.637Z,36.75
2023-02-11T03:12:40.845Z,29.30
2023-02-11T03:15:10.396Z,39.17
2023-02-11T03:17:41.958Z,29.70
2023-02-11T03:20:15.609Z,29.70
2023-02-11T03:22:49.985Z,25.70
2023-02-11T03:25:18.259Z,25.40
2023-02-11T03:27:52.851Z,22.25
2023-02-11T03:30:24.087Z,26.20
2023-02-11T03:32:56.700Z,29.02
2023-02-11T03:35:30.042Z,26.08
2023-02-11T03:38:03.706Z,28.23
2023-02-11T03:40:36.495Z,31.35
2023-02-11T03:43:09.908Z,31.48
2023-02-11T03:45:39.517Z,29.85
2023-02-11T03:48:12.407Z,29.40
2023-02-11T03:50:42.967Z,28.52
2023-02-11T03:53:12.909Z,37.65
2023-02-11T03:55:42.776Z,32.67
2023-02-11T03:58:11.187Z,35.20
2023-02-11T04:00:41.390Z,39.23
2023-02-11T04:03:10.081Z,29.05
2023-02-11T04:05:38.576Z,31.58
2023-02-11T04:08:08.498Z,29.40
2023-02-11T04:10:36.545Z,34.20
2023-02-11T04:13:04.628Z,34.00
2023-02-11T04:15:32.519Z,38.92
2023-02-11T04:18:00.358Z,34.50
2023-02-11T04:20:28.154Z,33.20
2023-02-11T04:22:56.245Z,31.77
2023-02-11T04:25:25.957Z,27.05
2023-02-11T04:27:53.784Z,37.92
2023-02-11T04:30:21.794Z,28.60
2023-02-11T04:32:49.647Z,34.92
2023-02-11T04:35:17.700Z,35.50
2023-02-11T04:37:45.566Z,32.53
2023-02-11T04:40:13.615Z,32.72
2023-02-11T04:42:42.784Z,41.00
2023-02-11T04:45:10.960Z,38.00
2023-02-11T04:47:38.785Z,35.20
2023-02-11T04:50:07.082Z,40.00
2023-02-11T04:52:34.891Z,30.75
2023-02-11T04:55:02.691Z,35.58
2023-02-11T04:57:30.547Z,43.78
2023-02-11T04:59:59.634Z,44.58
2023-02-11T05:02:27.521Z,42.50
2023-02-11T05:04:55.333Z,41.42
2023-02-11T05:07:23.133Z,51.63
2023-02-11T05:09:50.912Z,42.15
2023-02-11T05:12:19.125Z,39.47
2023-02-11T05:14:46.939Z,45.03
2023-02-11T05:17:16.090Z,33.95
2023-02-11T05:19:43.907Z,40.00
2023-02-11T05:22:11.678Z,49.85
2023-02-11T05:24:39.577Z,37.92
2023-02-11T05:27:07.403Z,37.20
2023-02-11T05:29:35.185Z,44.75
2023-02-11T05:32:03.102Z,41.78
2023-02-11T05:34:32.277Z,42.80
2023-02-11T05:37:00.216Z,45.97
2023-02-11T05:39:28.183Z,38.20
2023-02-11T05:41:56.021Z,39.92
2023-02-11T05:44:23.853Z,36.35
2023-02-11T05:46:51.647Z,45.55
2023-02-11T05:49:19.598Z,45.95
2023-02-11T05:51:48.839Z,37.55
2023-02-11T05:54:16.761Z,39.58
2023-02-11T05:56:45.088Z,34.10
2023-02-11T05:59:14.328Z,32.50
2023-02-11T06:01:42.207Z,41.35
2023-02-11T06:04:10.351Z,42.88
2023-02-11T06:06:38.188Z,29.05
2023-02-11T06:09:07.348Z,35.80
2023-02-11T06:11:35.169Z,38.22
2023-02-11T06:14:03.183Z,32.65
2023-02-11T06:16:31.106Z,29.42
2023-02-11T06:18:59.181Z,36.55
2023-02-11T06:21:42.535Z,35.83
2023-02-11T06:24:13.129Z,36.28
2023-02-11T06:29:08.764Z,32.90
2023-02-11T06:31:38.594Z,31.42
2023-02-11T06:34:06.670Z,41.17
2023-02-11T06:36:34.735Z,37.10
2023-02-11T06:39:02.605Z,35.83
2023-02-11T06:41:32.313Z,28.58
2023-02-11T06:44:00.475Z,32.00
2023-02-11T06:46:28.412Z,31.52
2023-02-11T06:48:56.278Z,35.00
2023-02-11T06:51:24.331Z,30.33
2023-02-11T06:53:52.268Z,35.08
2023-02-11T06:56:21.985Z,30.65
2023-02-11T06:58:54.649Z,32.03
2023-02-11T07:01:23.327Z,38.15
2023-02-11T07:03:52.292Z,31.90
2023-02-11T07:06:22.326Z,25.65
2023-02-11T07:08:50.486Z,32.42
2023-02-11T07:11:20.956Z,36.00
2023-02-11T07:13:48.902Z,31.15
2023-02-11T07:16:19.663Z,28.13
2023-02-11T07:18:49.057Z,38.35
2023-02-11T07:23:45.685Z,40.13
2023-02-11T07:26:15.938Z,31.70
2023-02-11T07:28:44.535Z,38.55
2023-02-11T07:31:14.729Z,34.40
2023-02-11T07:33:45.844Z,45.67
2023-02-11T07:36:14.743Z,36.65
2023-02-11T07:38:43.039Z,36.63
2023-02-11T07:41:13.290Z,44.75
2023-02-11T07:43:42.392Z,44.45
2023-02-11T07:46:11.988Z,47.53
2023-02-11T07:48:39.786Z,45.45
2023-02-11T07:51:10.828Z,35.63
2023-02-11T07:53:38.719Z,40.35
2023-02-11T07:56:08.164Z,41.22
2023-02-11T07:58:36.619Z,36.55
2023-02-11T08:01:05.850Z,39.28
2023-02-11T08:06:05.141Z,38.35
2023-02-11T08:08:34.405Z,39.05
2023-02-11T08:11:07.633Z,41.38
2023-02-11T08:13:36.123Z,37.60
2023-02-11T08:16:05.891Z,43.57
2023-02-11T08:18:34.725Z,36.10
2023-02-11T08:21:06.517Z,30.63
2023-02-11T08:23:36.947Z,44.75
2023-02-11T08:26:05.546Z,43.75
2023-02-11T08:28:36.481Z,39.05
2023-02-11T08:31:07.151Z,33.47
2023-02-11T08:33:35.085Z,40.60
2023-02-11T08:36:03.736Z,41.10
2023-02-11T08:38:31.541Z,37.72
2023-02-11T08:41:02.493Z,34.95
2023-02-11T08:43:30.392Z,46.42
2023-02-11T08:46:00.723Z,45.38
2023-02-11T08:48:30.166Z,51.28
2023-02-11T08:50:58.526Z,44.58
2023-02-11T08:53:26.588Z,33.80
2023-02-11T08:55:55.862Z,48.80
2023-02-11T08:58:25.084Z,41.28
2023-02-11T09:00:53.213Z,35.58
2023-02-11T09:03:21.330Z,41.30
2023-02-11T09:05:53.003Z,33.65
2023-02-11T09:08:21.682Z,41.78
2023-02-11T09:10:50.040Z,39.80
2023-02-11T09:13:18.047Z,45.00
2023-02-11T09:15:47.782Z,47.20
2023-02-11T09:18:15.915Z,43.78
2023-02-11T09:20:43.661Z,43.28
2023-02-11T09:23:12.451Z,44.72
2023-02-11T09:25:41.046Z,39.63
2023-02-11T09:28:09.102Z,31.10
2023-02-11T09:30:38.016Z,40.47
2023-02-11T09:33:07.486Z,37.63
2023-02-11T09:38:03.274Z,34.05
2023-02-11T09:40:31.308Z,34.35
2023-02-11T09:43:06.981Z,36.50
2023-02-11T09:45:34.897Z,38.08
2023-02-11T09:48:06.574Z,44.47
2023-02-11T09:50:40.030Z,40.85
2023-02-11T09:53:13.708Z,36.90
2023-02-11T09:55:44.024Z,37.40
2023-02-11T09:58:15.758Z,39.30
2023-02-11T10:00:48.223Z,37.90
2023-02-11T10:03:38.519Z,35.92
2023-02-11T10:06:23.354Z,39.08
2023-02-11T10:09:02.358Z,40.00
2023-02-11T10:11:37.365Z,34.38
2023-02-11T10:14:17.107Z,42.38
2023-02-11T10:16:56.408Z,43.15
2023-02-11T10:22:09.127Z,45.13
2023-02-11T10:24:37.256Z,38.65
2023-02-11T10:27:14.692Z,50.42
2023-02-11T10:29:47.388Z,38.50
2023-02-11T10:32:28.199Z,52.63
2023-02-11T10:35:00.421Z,58.40
2023-02-11T10:37:29.941Z,35.88
2023-02-11T10:42:26.764Z,52.38
2023-02-11T10:45:00.244Z,47.97
2023-02-11T10:47:32.799Z,46.88
2023-02-11T10:50:03.656Z,56.33
2023-02-11T10:52:32.986Z,58.75
2023-02-11T10:55:03.566Z,36.60
2023-02-11T10:57:35.895Z,51.92
2023-02-11T11:00:24.051Z,53.28
2023-02-11T11:02:57.958Z,54.90
2023-02-11T11:05:31.382Z,48.15
2023-02-11T11:08:03.035Z,51.88
2023-02-11T11:10:43.124Z,53.38
2023-02-11T11:13:28.945Z,49.35
2023-02-11T11:16:24.144Z,61.92
2023-02-11T11:18:54.270Z,49.65
2023-02-11T11:21:25.410Z,59.92
2023-02-11T11:23:58.322Z,55.65
2023-02-11T11:26:28.487Z,52.53
2023-02-11T11:28:59.830Z,58.60
2023-02-11T11:31:31.351Z,57.00
2023-02-11T11:34:02.090Z,59.72
2023-02-11T11:36:37.103Z,52.53
2023-02-11T11:39:23.640Z,62.10
2023-02-11T11:41:54.865Z,68.78
2023-02-11T11:44:27.753Z,58.53
2023-02-11T11:47:14.416Z,56.35
2023-02-11T11:49:48.816Z,56.38
2023-02-11T11:52:26.508Z,59.45
2023-02-11T11:55:02.305Z,58.10
2023-02-11T11:57:38.760Z,59.50
2023-02-11T12:00:14.825Z,62.72
2023-02-11T12:03:09.831Z,56.72
2023-02-11T12:05:43.484Z,59.40
2023-02-11T12:08:21.129Z,65.72
2023-02-11T12:11:03.020Z,62.05
2023-02-11T12:13:44.095Z,62.35
2023-02-11T12:16:24.097Z,57.95
2023-02-11T12:19:17.359Z,62.25
2023-02-11T12:21:54.284Z,65.28
2023-02-11T12:24:34.344Z,62.33
2023-02-11T12:27:09.918Z,65.82
2023-02-11T12:29:44.553Z,66.88
2023-02-11T12:32:27.181Z,72.63
2023-02-11T12:35:27.507Z,65.38
2023-02-11T12:38:15.903Z,73.60
2023-02-11T12:40:47.021Z,65.80
2023-02-11T12:43:22.269Z,68.25
2023-02-11T12:46:12.969Z,86.18
2023-02-11T12:49:04.203Z,63.72
2023-02-11T12:51:45.626Z,77.95
2023-02-11T12:54:24.132Z,66.20
2023-02-11T12:56:55.399Z,73.50
2023-02-11T12:59:39.494Z,77.85
2023-02-11T13:02:19.100Z,76.25
2023-02-11T13:04:51.639Z,74.20
2023-02-11T13:07:25.841Z,90.05
2023-02-11T13:09:58.806Z,74.53
2023-02-11T13:12:47.206Z,70.60
2023-02-11T13:15:16.613Z,80.63
2023-02-11T13:20:36.506Z,67.00
2023-02-11T13:23:12.702Z,66.53
2023-02-11T13:25:47.206Z,81.70
2023-02-11T13:28:26.809Z,73.00
2023-02-11T13:31:02.762Z,74.40
2023-02-11T13:33:39.536Z,64.05
2023-02-11T13:36:18.847Z,65.93
2023-02-11T13:41:35.419Z,69.28
2023-02-11T13:44:07.600Z,61.35
2023-02-11T13:46:59.269Z,68.15
2023-02-11T13:49:32.719Z,63.42
2023-02-11T13:52:02.362Z,57.72
2023-02-11T13:54:36.969Z,63.95
2023-02-11T13:57:38.121Z,59.22
2023-02-11T14:00:45.192Z,56.90
2023-02-11T14:03:52.942Z,49.75
2023-02-11T14:06:41.301Z,64.13
2023-02-11T14:09:37.041Z,75.47
2023-02-11T14:12:26.093Z,55.28
2023-02-11T14:15:20.066Z,68.50
2023-02-11T14:17:47.934Z,46.67
2023-02-11T14:20:45.368Z,61.03
2023-02-11T14:23:27.209Z,58.63
2023-02-11T14:26:04.185Z,48.38
2023-02-11T14:28:34.350Z,46.17
2023-02-11T14:31:10.095Z,49.90
2023-02-11T14:34:00.755Z,50.78
2023-02-11T14:36:54.053Z,44.92
2023-02-11T14:39:30.409Z,48.22
2023-02-11T14:42:02.573Z,227.85
2023-02-11T14:44:32.949Z,52.65
2023-02-11T14:47:01.198Z,48.92
2023-02-11T14:49:32.203Z,54.58
2023-02-11T14:52:06.960Z,53.85
2023-02-11T14:54:35.857Z,69.75
2023-02-11T14:57:09.132Z,54.65
2023-02-11T14:59:37.046Z,41.90
2023-02-11T15:02:05.130Z,42.97
2023-02-11T15:04:36.141Z,38.33
2023-02-11T15:07:11.968Z,54.92
2023-02-11T15:09:42.755Z,45.63
2023-02-11T15:12:20.193Z,52.75
2023-02-11T15:14:51.159Z,118.47
2023-02-11T15:17:23.924Z,50.05
2023-02-11T15:19:54.155Z,69.63
2023-02-11T15:22:25.721Z,62.67
2023-02-11T15:25:00.600Z,51.20
2023-02-11T15:27:28.844Z,107.28
2023-02-11T15:29:56.760Z,66.47
2023-02-11T15:32:26.730Z,51.85
2023-02-11T15:34:56.783Z,99.35
2023-02-11T15:37:27.806Z,49.88
2023-02-11T15:39:56.390Z,69.10
2023-02-11T15:42:26.722Z,49.70
2023-02-11T15:45:12.876Z,113.03
2023-02-11T15:47:41.895Z,54.47
2023-02-11T15:50:22.137Z,55.22
2023-02-11T15:52:52.291Z,66.55
2023-02-11T15:55:21.478Z,56.47
2023-02-11T15:57:53.622Z,57.88
2023-02-11T16:00:24.567Z,59.50
2023-02-11T16:02:53.411Z,60.08
2023-02-11T16:05:30.514Z,63.10
2023-02-11T16:08:00.716Z,62.28
2023-02-11T16:10:31.619Z,81.13
2023-02-11T16:13:16.791Z,58.17
2023-02-11T16:15:47.780Z,56.17
2023-02-11T16:18:36.970Z,61.05
2023-02-11T16:21:08.491Z,46.13
2023-02-11T16:23:42.035Z,49.47
2023-02-11T16:26:21.606Z,49.20
2023-02-11T16:28:50.221Z,51.80
2023-02-11T16:31:18.572Z,52.63
2023-02-11T16:33:46.530Z,52.57
2023-02-11T16:36:17.154Z,51.17
2023-02-11T16:38:46.361Z,43.90
2023-02-11T16:41:14.356Z,47.70
2023-02-11T16:43:42.246Z,53.38
2023-02-11T16:46:15.000Z,52.42
2023-02-11T16:48:42.972Z,53.40
2023-02-11T16:51:12.915Z,49.65
2023-02-11T16:53:40.822Z,46.75
2023-02-11T16:56:14.927Z,51.80
2023-02-11T16:58:42.816Z,50.95
2023-02-11T17:01:13.818Z,54.55
2023-02-11T17:03:43.525Z,46.53
2023-02-11T17:08:40.516Z,49.08
2023-02-11T17:11:08.328Z,79.38
2023-02-11T17:13:39.453Z,73.88
2023-02-11T17:16:12.294Z,56.92
2023-02-11T17:18:40.156Z,89.85
2023-02-11T17:21:08.511Z,60.28
2023-02-11T17:23:36.394Z,109.32
2023-02-11T17:26:04.688Z,59.13
2023-02-11T17:28:33.038Z,64.55
2023-02-11T17:31:02.527Z,53.10
2023-02-11T17:33:30.416Z,64.40
2023-02-11T17:35:58.349Z,55.83
2023-02-11T17:38:26.223Z,61.80
2023-02-11T17:41:01.330Z,67.10
2023-02-11T17:43:29.485Z,56.13
2023-02-11T17:45:57.952Z,55.33
2023-02-11T17:48:27.318Z,56.20
2023-02-11T17:53:22.851Z,58.50
2023-02-11T17:55:51.017Z,61.35
2023-02-11T17:58:19.136Z,60.20
2023-02-11T18:00:47.098Z,62.35
2023-02-11T18:03:14.964Z,77.13
2023-02-11T18:05:44.158Z,67.47
2023-02-11T18:08:12.039Z,76.28
2023-02-11T18:10:42.854Z,63.72
2023-02-11T18:13:10.724Z,61.65
2023-02-11T18:15:38.589Z,67.38
2023-02-11T18:18:06.550Z,59.28
2023-02-11T18:20:34.415Z,65.15
2023-02-11T18:23:03.950Z,66.90
2023-02-11T18:25:31.763Z,71.97
2023-02-11T18:27:59.656Z,70.68
2023-02-11T18:30:29.685Z,65.55
2023-02-11T18:32:57.532Z,72.15
2023-02-11T18:35:25.425Z,71.30
2023-02-11T18:37:53.618Z,72.55
2023-02-11T18:40:23.141Z,71.78
2023-02-11T18:42:50.995Z,71.57
2023-02-11T18:45:19.045Z,71.55
2023-02-11T18:47:46.913Z,73.80
2023-02-11T18:50:16.037Z,76.65
2023-02-11T18:52:43.830Z,79.53
2023-02-11T18:55:11.780Z,73.50
2023-02-11T18:57:41.074Z,79.03
2023-02-11T19:00:10.207Z,65.22
2023-02-11T19:02:38.139Z,73.07
2023-02-11T19:05:06.920Z,78.63
2023-02-11T19:07:34.752Z,75.65
2023-02-11T19:10:02.576Z,80.65
2023-02-11T19:12:30.440Z,84.63
2023-02-11T19:15:00.801Z,85.72
2023-02-11T19:17:28.846Z,83.20
2023-02-11T19:19:56.673Z,83.70
2023-02-11T19:22:24.570Z,74.88
2023-02-11T19:24:52.407Z,68.00
2023-02-11T19:27:23.176Z,77.47
2023-02-11T19:29:51.053Z,76.88
2023-02-11T19:32:20.268Z,72.13
2023-02-11T19:37:16.147Z,76.38
2023-02-11T19:39:45.032Z,81.22
2023-02-11T19:42:13.623Z,81.65
2023-02-11T19:44:41.517Z,81.30
2023-02-11T19:47:10.273Z,82.10
2023-02-11T19:49:39.558Z,77.82
2023-02-11T19:52:07.424Z,68.13
2023-02-11T19:54:35.394Z,80.65
2023-02-11T19:57:03.226Z,78.75
2023-02-11T19:59:31.284Z,92.50
2023-02-11T20:02:00.520Z,70.55
2023-02-11T20:04:31.934Z,87.68
2023-02-11T20:07:01.388Z,68.55
2023-02-11T20:09:31.046Z,74.97
2023-02-11T20:11:59.004Z,83.47
2023-02-11T20:14:28.152Z,77.68
2023-02-11T20:16:56.134Z,86.30
2023-02-11T20:19:24.058Z,89.75
2023-02-11T20:21:55.606Z,85.43
2023-02-11T20:24:26.278Z,76.72
2023-02-11T20:26:55.912Z,109.38
2023-02-11T20:29:25.178Z,83.22
2023-02-11T20:31:53.134Z,92.38
2023-02-11T20:34:21.969Z,76.45
2023-02-11T20:36:52.664Z,88.97
2023-02-11T20:39:22.372Z,79.93
2023-02-11T20:41:52.416Z,81.78
2023-02-11T20:44:22.673Z,71.93
2023-02-11T20:46:51.529Z,82.70
2023-02-11T20:49:21.460Z,83.68
2023-02-11T20:51:50.018Z,72.95
2023-02-11T20:54:19.995Z,71.28
2023-02-11T20:56:50.598Z,86.47
2023-02-11T20:59:20.947Z,74.47
2023-02-11T21:01:50.670Z,73.30
2023-02-11T21:04:20.469Z,74.63
2023-02-11T21:06:50.877Z,73.97
2023-02-11T21:09:22.657Z,81.20
2023-02-11T21:11:52.040Z,76.03
2023-02-11T21:16:50.762Z,65.55
2023-02-11T21:19:18.927Z,79.15
2023-02-11T21:21:46.988Z,77.28
2023-02-11T21:24:14.868Z,70.97
2023-02-11T21:26:42.753Z,70.70
2023-02-11T21:29:11.651Z,72.18
2023-02-11T21:31:41.281Z,73.22
2023-02-11T21:34:09.188Z,73.80
2023-02-11T21:36:36.987Z,79.45
2023-02-11T21:39:05.969Z,69.72
2023-02-11T21:41:34.052Z,78.55
2023-02-11T21:44:02.219Z,67.65
2023-02-11T21:46:30.782Z,70.38
2023-02-11T21:49:00.432Z,65.45
2023-02-11T21:51:28.710Z,79.65
2023-02-11T21:53:58.571Z,71.38
2023-02-11T21:56:28.164Z,75.70
2023-02-11T21:58:58.509Z,96.50
2023-02-11T22:01:28.177Z,88.10
2023-02-11T22:03:56.065Z,77.05
2023-02-11T22:06:27.149Z,71.25
2023-02-11T22:08:55.475Z,73.93
2023-02-11T22:11:23.610Z,65.07
2023-02-11T22:13:54.625Z,72.97
2023-02-11T22:16:23.292Z,66.80
2023-02-11T22:18:51.426Z,77.35
2023-02-11T22:21:21.011Z,82.93
2023-02-11T22:23:50.526Z,76.55
2023-02-11T22:26:21.290Z,80.15
2023-02-11T22:28:50.009Z,78.15
2023-02-11T22:31:20.136Z,76.30
2023-02-11T22:33:48.459Z,77.53
2023-02-11T22:36:18.594Z,88.88
2023-02-11T22:38:46.480Z,73.68
2023-02-11T22:41:16.529Z,73.13
2023-02-11T22:43:45.033Z,76.75
2023-02-11T22:46:15.137Z,80.40
2023-02-11T22:48:43.107Z,81.03
2023-02-11T22:51:12.701Z,78.90
2023-02-11T22:53:40.844Z,82.45
2023-02-11T22:56:14.807Z,75.10
2023-02-11T22:58:45.162Z,88.28
2023-02-11T23:01:13.708Z,76.63
2023-02-11T23:03:41.907Z,82.35
2023-02-11T23:06:10.360Z,76.03
2023-02-11T23:08:39.023Z,74.97
2023-02-11T23:11:08.061Z,71.57
2023-02-11T23:13:37.897Z,78.07
2023-02-11T23:16:08.684Z,76.82
2023-02-11T23:18:37.462Z,76.57
2023-02-11T23:21:06.957Z,76.78
2023-02-11T23:23:35.225Z,81.65
2023-02-11T23:26:03.524Z,82.75
2023-02-11T23:28:31.410Z,82.40
2023-02-11T23:30:59.250Z,80.15
2023-02-11T23:33:28.519Z,88.28
2023-02-11T23:35:56.566Z,75.70
2023-02-11T23:38:24.570Z,75.20
2023-02-11T23:40:52.370Z,73.47
2023-02-11T23:43:22.188Z,79.95
2023-02-11T23:45:52.075Z,83.50
2023-02-11T23:48:20.231Z,92.07
2023-02-11T23:50:49.439Z,76.63
2023-02-11T23:53:17.232Z,77.22
2023-02-11T23:55:46.785Z,73.55
2023-02-11T23:58:15.541Z,85.63
